Time;durP1;ratioP1;P1;durP2;ratioP2;P2;SDS_P1;SDS_P2;PMS_P1;PMS_P2;Temp;Humidity;BMP_temperature;BMP_pressure;BME280_temperature;BME280_humidity;BME280_pressure;Samples;Min_cycle;Max_cycle;Signal;HPM_P1;HPM_P2
2022/03/16 00:01:42;;;;;;;;;;;22.80;38.30;;;;;;5060112;28;20023;-54
2022/03/16 00:04:07;;;;;;;;;;;22.70;38.80;;;;;;5057164;28;19920;-54
2022/03/16 00:06:33;;;;;;;;;;;22.70;38.10;;;;;;5056897;28;19924;-54
2022/03/16 00:08:58;;;;;;;;;;;22.70;38.00;;;;;;5060163;28;19921;-54
2022/03/16 00:11:24;;;;;;;;;;;22.70;38.00;;;;;;5060493;28;19921;-54
2022/03/16 00:13:49;;;;;;;;;;;22.60;38.00;;;;;;5063713;28;19974;-54
2022/03/16 00:16:14;;;;;;;;;;;22.60;38.20;;;;;;5060615;28;20007;-54
2022/03/16 00:18:40;;;;;;;;;;;22.60;38.10;;;;;;5061564;28;19912;-54
2022/03/16 00:21:05;;;;;;;;;;;22.50;38.20;;;;;;5060400;28;19920;-53
2022/03/16 00:23:32;;;;;;;;;;;22.50;38.20;;;;;;5063029;28;20023;-53
2022/03/16 00:25:57;;;;;;;;;;;22.50;38.20;;;;;;5061767;28;19920;-54
2022/03/16 00:28:23;;;;;;;;;;;22.50;38.20;;;;;;5061333;28;20339;-54
2022/03/16 00:30:48;;;;;;;;;;;22.50;38.20;;;;;;5063325;28;19913;-54
2022/03/16 00:33:14;;;;;;;;;;;22.50;38.30;;;;;;5059916;28;19958;-54
2022/03/16 00:35:39;;;;;;;;;;;22.50;38.20;;;;;;5062945;28;19974;-54
2022/03/16 00:38:05;;;;;;;;;;;22.40;38.20;;;;;;5061610;28;20608;-53
2022/03/16 00:40:33;;;;;;;;;;;22.40;38.20;;;;;;5061682;28;20244;-54
2022/03/16 00:42:59;;;;;;;;;;;22.40;38.20;;;;;;5061853;28;20380;-54
2022/03/16 00:45:24;;;;;;;;;;;22.40;38.20;;;;;;5059962;28;20024;-54
2022/03/16 00:47:50;;;;;;;;;;;22.40;38.20;;;;;;5063044;28;20356;-54
2022/03/16 00:50:15;;;;;;;;;;;22.30;38.10;;;;;;5059611;28;19917;-54
2022/03/16 00:52:41;;;;;;;;;;;22.30;38.10;;;;;;5061756;28;19916;-54
2022/03/16 00:55:07;;;;;;;;;;;22.30;38.10;;;;;;5061513;28;20300;-55
2022/03/16 00:57:32;;;;;;;;;;;22.30;38.10;;;;;;5058006;28;20414;-55
2022/03/16 00:59:58;;;;;;;;;;;22.30;38.10;;;;;;5062540;28;19919;-53
2022/03/16 01:02:24;;;;;;;;;;;22.30;38.10;;;;;;5061117;28;19916;-54
2022/03/16 01:04:49;;;;;;;;;;;22.30;38.10;;;;;;5060915;28;19916;-54
2022/03/16 01:07:15;;;;;;;;;;;22.20;38.10;;;;;;5060696;28;19956;-54
2022/03/16 01:09:40;;;;;;;;;;;22.30;38.10;;;;;;5058746;28;19913;-53
2022/03/16 01:12:06;;;;;;;;;;;22.30;38.10;;;;;;5060532;28;21010;-54
2022/03/16 01:14:32;;;;;;;;;;;22.30;38.10;;;;;;5057548;28;20024;-54
2022/03/16 01:16:57;;;;;;;;;;;22.30;38.10;;;;;;5061699;28;20137;-54
2022/03/16 01:19:23;;;;;;;;;;;22.30;38.00;;;;;;5058880;28;20014;-53
2022/03/16 01:21:48;;;;;;;;;;;22.30;38.00;;;;;;5061084;28;19966;-53
2022/03/16 01:24:13;;;;;;;;;;;22.20;38.10;;;;;;5060857;28;19920;-54
2022/03/16 01:26:39;;;;;;;;;;;22.20;38.00;;;;;;5059430;28;19921;-54
2022/03/16 01:29:04;;;;;;;;;;;22.20;38.00;;;;;;5061211;28;19923;-55
2022/03/16 01:31:30;;;;;;;;;;;22.20;38.00;;;;;;5057964;28;19923;-54
2022/03/16 01:33:55;;;;;;;;;;;22.20;37.90;;;;;;5061274;28;19931;-54
2022/03/16 01:36:21;;;;;;;;;;;22.20;38.00;;;;;;5060613;28;19923;-53
2022/03/16 01:38:46;;;;;;;;;;;22.20;38.00;;;;;;5060301;28;19944;-53
2022/03/16 01:41:13;;;;;;;;;;;22.20;37.90;;;;;;5060604;28;19916;-55
2022/03/16 01:43:38;;;;;;;;;;;22.20;37.90;;;;;;5057769;28;19921;-54
2022/03/16 01:46:04;;;;;;;;;;;22.20;37.80;;;;;;5062160;28;19917;-54
2022/03/16 01:48:29;;;;;;;;;;;22.10;37.80;;;;;;5058765;28;19920;-54
2022/03/16 01:50:55;;;;;;;;;;;22.10;37.80;;;;;;5060758;28;19950;-55
2022/03/16 01:53:20;;;;;;;;;;;22.20;37.80;;;;;;5059461;28;20042;-54
2022/03/16 01:55:46;;;;;;;;;;;22.10;37.80;;;;;;5059866;28;19912;-54
2022/03/16 01:58:11;;;;;;;;;;;22.10;37.80;;;;;;5060398;28;20077;-54
2022/03/16 02:00:37;;;;;;;;;;;22.10;37.70;;;;;;5056849;28;19913;-54
2022/03/16 02:03:02;;;;;;;;;;;22.10;37.80;;;;;;5062589;28;19921;-54
2022/03/16 02:05:28;;;;;;;;;;;22.10;37.80;;;;;;5057815;28;19913;-54
2022/03/16 02:07:53;;;;;;;;;;;22.10;37.80;;;;;;5059272;28;19912;-54
2022/03/16 02:10:19;;;;;;;;;;;22.10;37.80;;;;;;5059748;28;19967;-53
2022/03/16 02:12:51;;;;;;;;;;;22.00;37.80;;;;;;5058902;28;19921;-54
2022/03/16 02:15:20;;;;;;;;;;;22.00;37.90;;;;;;5060024;28;19928;-53
2022/03/16 02:17:46;;;;;;;;;;;22.00;37.90;;;;;;5059318;28;20085;-54
2022/03/16 02:20:11;;;;;;;;;;;22.10;38.10;;;;;;5059791;28;19916;-55
2022/03/16 02:22:48;;;;;;;;;;;22.30;38.10;;;;;;5059622;28;19913;-54
2022/03/16 02:25:15;;;;;;;;;;;22.40;37.80;;;;;;5059089;28;19917;-54
2022/03/16 02:27:40;;;;;;;;;;;22.60;37.40;;;;;;5058213;28;19912;-54
2022/03/16 02:30:06;;;;;;;;;;;22.90;37.10;;;;;;5059993;28;19919;-54
2022/03/16 02:32:32;;;;;;;;;;;23.30;36.30;;;;;;5058897;28;20399;-54
2022/03/16 02:34:57;;;;;;;;;;;23.70;35.90;;;;;;5060967;28;19924;-55
2022/03/16 02:37:22;;;;;;;;;;;24.20;35.20;;;;;;5057880;28;19928;-54
2022/03/16 02:39:48;;;;;;;;;;;24.60;34.60;;;;;;5059435;28;20380;-54
2022/03/16 02:42:14;;;;;;;;;;;24.90;34.10;;;;;;5058651;28;24721;-55
2022/03/16 02:44:39;;;;;;;;;;;25.20;33.60;;;;;;5060336;28;19992;-54
2022/03/16 02:47:05;;;;;;;;;;;25.40;33.30;;;;;;5060202;28;19920;-55
2022/03/16 02:49:31;;;;;;;;;;;25.50;33.10;;;;;;5057322;28;19917;-56
2022/03/16 02:51:57;;;;;;;;;;;25.60;33.10;;;;;;5059615;28;19920;-53
2022/03/16 02:54:23;;;;;;;;;;;25.60;33.10;;;;;;5058266;28;19962;-53
2022/03/16 02:56:48;;;;;;;;;;;25.60;33.10;;;;;;5059461;28;19960;-54
2022/03/16 02:59:14;;;;;;;;;;;25.50;33.20;;;;;;5056855;28;19942;-54
2022/03/16 03:01:39;;;;;;;;;;;25.40;33.40;;;;;;5057861;28;19916;-55
2022/03/16 03:04:05;;;;;;;;;;;25.30;33.50;;;;;;5059526;28;20007;-54
2022/03/16 03:06:30;;;;;;;;;;;25.30;33.50;;;;;;5057791;28;21020;-54
2022/03/16 03:08:56;;;;;;;;;;;25.20;33.60;;;;;;5059958;28;20364;-54
2022/03/16 03:11:21;;;;;;;;;;;25.10;33.70;;;;;;5059117;28;20666;-54
2022/03/16 03:13:47;;;;;;;;;;;25.00;33.70;;;;;;5057879;28;20287;-54
2022/03/16 03:16:12;;;;;;;;;;;25.00;33.90;;;;;;5059342;28;19913;-53
2022/03/16 03:18:37;;;;;;;;;;;24.90;34.10;;;;;;5056962;28;19920;-54
2022/03/16 03:21:03;;;;;;;;;;;24.80;34.10;;;;;;5059840;28;19997;-53
2022/03/16 03:23:29;;;;;;;;;;;24.70;34.10;;;;;;5058367;28;20014;-54
2022/03/16 03:25:54;;;;;;;;;;;24.60;34.30;;;;;;5059745;28;19962;-54
2022/03/16 03:28:19;;;;;;;;;;;24.50;34.40;;;;;;5057365;28;19916;-53
2022/03/16 03:30:45;;;;;;;;;;;24.40;34.50;;;;;;5059507;28;19948;-55
2022/03/16 03:33:11;;;;;;;;;;;24.40;34.50;;;;;;5060032;28;19938;-54
2022/03/16 03:35:36;;;;;;;;;;;24.30;34.50;;;;;;5057311;28;19917;-54
2022/03/16 03:38:02;;;;;;;;;;;24.20;34.80;;;;;;5059456;28;19958;-54
2022/03/16 03:40:27;;;;;;;;;;;24.10;34.90;;;;;;5057023;28;19913;-54
2022/03/16 03:42:53;;;;;;;;;;;24.10;35.10;;;;;;5059531;28;19918;-54
2022/03/16 03:45:18;;;;;;;;;;;24.00;35.10;;;;;;5062466;28;20057;-55
2022/03/16 03:47:44;;;;;;;;;;;23.90;35.20;;;;;;5063053;28;20045;-53
2022/03/16 03:50:09;;;;;;;;;;;24.00;35.30;;;;;;5064237;28;19916;-54
2022/03/16 03:52:37;;;;;;;;;;;24.00;35.10;;;;;;5059971;28;19920;-53
2022/03/16 03:55:03;;;;;;;;;;;24.00;35.10;;;;;;5062773;28;19923;-53
2022/03/16 03:57:29;;;;;;;;;;;24.10;35.10;;;;;;5061975;28;20300;-53
2022/03/16 03:59:54;;;;;;;;;;;24.10;35.10;;;;;;5062842;28;19912;-54
2022/03/16 04:02:20;;;;;;;;;;;24.10;35.00;;;;;;5062517;28;19917;-54
2022/03/16 04:04:45;;;;;;;;;;;24.10;34.90;;;;;;5059579;28;19995;-53
2022/03/16 04:07:11;;;;;;;;;;;24.10;34.90;;;;;;5062694;28;19929;-54
2022/03/16 04:09:36;;;;;;;;;;;24.10;34.80;;;;;;5061231;28;19912;-54
2022/03/16 04:12:02;;;;;;;;;;;24.20;34.80;;;;;;5061516;28;19916;-55
2022/03/16 04:14:27;;;;;;;;;;;24.20;34.70;;;;;;5062641;28;20430;-53
2022/03/16 04:16:53;;;;;;;;;;;24.20;34.60;;;;;;5060954;28;20037;-55
2022/03/16 04:19:18;;;;;;;;;;;24.30;34.70;;;;;;5061304;28;20011;-53
2022/03/16 04:21:43;;;;;;;;;;;24.30;34.50;;;;;;5058631;28;19956;-54
2022/03/16 04:24:09;;;;;;;;;;;24.30;34.50;;;;;;5061908;28;19932;-55
2022/03/16 04:26:34;;;;;;;;;;;24.40;34.40;;;;;;5059527;28;19912;-54
2022/03/16 04:29:00;;;;;;;;;;;24.50;34.30;;;;;;5062556;28;19958;-54
2022/03/16 04:31:25;;;;;;;;;;;24.50;34.20;;;;;;5061870;28;20301;-53
2022/03/16 04:33:52;;;;;;;;;;;24.50;34.20;;;;;;5060525;28;20350;-54
2022/03/16 04:36:17;;;;;;;;;;;24.40;34.20;;;;;;5061620;28;20413;-54
2022/03/16 04:38:43;;;;;;;;;;;24.30;34.20;;;;;;5058971;28;19961;-54
2022/03/16 04:41:08;;;;;;;;;;;24.30;34.20;;;;;;5061595;28;19940;-54
2022/03/16 04:43:33;;;;;;;;;;;24.30;34.40;;;;;;5060860;28;19925;-54
2022/03/16 04:45:59;;;;;;;;;;;24.30;34.40;;;;;;5061400;28;19920;-54
2022/03/16 04:48:24;;;;;;;;;;;24.20;34.40;;;;;;5061245;28;19916;-54
2022/03/16 04:50:50;;;;;;;;;;;24.10;34.40;;;;;;5059480;28;19916;-55
2022/03/16 04:53:15;;;;;;;;;;;24.10;34.50;;;;;;5063748;28;19912;-54
2022/03/16 04:55:41;;;;;;;;;;;24.10;34.60;;;;;;5059687;28;19929;-54
2022/03/16 04:58:07;;;;;;;;;;;24.10;34.60;;;;;;5060176;28;20214;-54
2022/03/16 05:00:36;;;;;;;;;;;24.10;34.60;;;;;;5060237;28;19932;-54
2022/03/16 05:03:02;;;;;;;;;;;24.10;34.60;;;;;;5061190;28;19912;-54
2022/03/16 05:05:28;;;;;;;;;;;24.10;34.50;;;;;;5061563;28;19919;-54
2022/03/16 05:07:54;;;;;;;;;;;24.10;34.50;;;;;;5059096;28;19955;-54
2022/03/16 05:10:19;;;;;;;;;;;24.10;34.50;;;;;;5061923;28;19962;-54
2022/03/16 05:12:45;;;;;;;;;;;24.10;34.50;;;;;;5059697;28;20469;-54
2022/03/16 05:15:14;;;;;;;;;;;24.10;34.50;;;;;;5060048;28;20307;-54
2022/03/16 05:17:39;;;;;;;;;;;24.10;34.50;;;;;;5059894;28;19964;-54
2022/03/16 05:20:05;;;;;;;;;;;24.10;34.50;;;;;;5058257;28;20388;-54
2022/03/16 05:22:31;;;;;;;;;;;24.00;34.40;;;;;;5061238;28;19931;-54
2022/03/16 05:24:56;;;;;;;;;;;24.00;34.50;;;;;;5059931;28;19920;-54
2022/03/16 05:27:22;;;;;;;;;;;24.00;34.50;;;;;;5062188;28;19912;-54
2022/03/16 05:29:47;;;;;;;;;;;24.00;34.60;;;;;;5061174;28;19920;-54
2022/03/16 05:32:13;;;;;;;;;;;23.90;34.60;;;;;;5060441;28;19921;-54
2022/03/16 05:34:39;;;;;;;;;;;23.90;34.60;;;;;;5061031;28;19916;-53
2022/03/16 05:37:05;;;;;;;;;;;23.90;34.60;;;;;;5058284;28;19917;-53
2022/03/16 05:39:30;;;;;;;;;;;23.90;34.60;;;;;;5061308;28;19912;-53
2022/03/16 05:41:56;;;;;;;;;;;23.90;34.50;;;;;;5059025;28;20580;-53
2022/03/16 05:44:21;;;;;;;;;;;23.90;34.60;;;;;;5059727;28;20318;-54
2022/03/16 05:46:47;;;;;;;;;;;23.90;34.60;;;;;;5061394;28;19912;-54
2022/03/16 05:49:12;;;;;;;;;;;23.90;34.50;;;;;;5059062;28;20587;-54
2022/03/16 05:51:38;;;;;;;;;;;24.00;34.50;;;;;;5061055;28;20388;-54
2022/03/16 05:54:03;;;;;;;;;;;24.00;34.50;;;;;;5059070;28;19932;-54
2022/03/16 05:56:30;;;;;;;;;;;24.00;34.40;;;;;;5060927;28;19924;-54
2022/03/16 05:58:55;;;;;;;;;;;24.00;34.30;;;;;;5060637;28;20395;-54
2022/03/16 06:01:20;;;;;;;;;;;24.10;34.40;;;;;;5058689;28;19916;-54
2022/03/16 06:03:46;;;;;;;;;;;24.00;34.20;;;;;;5059762;28;19913;-54
2022/03/16 06:06:11;;;;;;;;;;;24.10;34.30;;;;;;5057106;28;20377;-54
2022/03/16 06:08:37;;;;;;;;;;;24.10;34.20;;;;;;5061003;28;19912;-54
2022/03/16 06:11:02;;;;;;;;;;;24.10;34.30;;;;;;5059270;28;24033;-55
2022/03/16 06:13:28;;;;;;;;;;;24.00;34.20;;;;;;5059084;28;19920;-54
2022/03/16 06:15:53;;;;;;;;;;;24.00;34.30;;;;;;5059071;28;19931;-54
2022/03/16 06:18:19;;;;;;;;;;;23.90;34.40;;;;;;5056577;28;20532;-54
2022/03/16 06:20:44;;;;;;;;;;;23.90;34.40;;;;;;5059577;28;20375;-54
2022/03/16 06:23:10;;;;;;;;;;;23.90;34.40;;;;;;5056995;28;19912;-55
2022/03/16 06:25:35;;;;;;;;;;;23.90;34.50;;;;;;5063465;28;20015;-54
2022/03/16 06:28:01;;;;;;;;;;;24.10;34.10;;;;;;5062870;28;19999;-54
2022/03/16 06:30:26;;;;;;;;;;;24.60;33.70;;;;;;5071185;28;19913;-54
2022/03/16 06:32:52;;;;;;;;;;;24.90;33.10;;;;;;5071599;28;19913;-54
2022/03/16 06:35:17;;;;;;;;;;;25.30;32.60;;;;;;5071789;28;19912;-54
2022/03/16 06:37:43;;;;;;;;;;;25.50;32.20;;;;;;5071367;28;20283;-54
2022/03/16 06:40:09;;;;;;;;;;;25.60;32.30;;;;;;5071569;28;19916;-54
2022/03/16 06:42:34;;;;;;;;;;;25.60;32.10;;;;;;5070278;28;20031;-54
2022/03/16 06:45:00;;;;;;;;;;;25.70;32.10;;;;;;5070925;28;20022;-54
2022/03/16 06:47:25;;;;;;;;;;;25.70;31.90;;;;;;5071702;28;20348;-55
2022/03/16 06:49:50;;;;;;;;;;;25.80;31.80;;;;;;5069741;28;20387;-54
2022/03/16 06:52:16;;;;;;;;;;;26.00;31.70;;;;;;5070136;28;20368;-55
2022/03/16 06:54:41;;;;;;;;;;;26.10;31.40;;;;;;5060238;28;19924;-54
2022/03/16 06:57:07;;;;;;;;;;;26.20;31.30;;;;;;5070387;28;19912;-54
2022/03/16 06:59:32;;;;;;;;;;;26.20;31.20;;;;;;5064682;28;20283;-54
2022/03/16 07:01:58;;;;;;;;;;;26.30;31.20;;;;;;5071230;28;19966;-54
2022/03/16 07:04:24;;;;;;;;;;;26.30;31.10;;;;;;5071366;28;19913;-55
2022/03/16 07:06:49;;;;;;;;;;;26.40;31.10;;;;;;5063464;28;19925;-53
2022/03/16 07:09:15;;;;;;;;;;;26.40;31.00;;;;;;5054824;28;21882;-53
2022/03/16 07:11:40;;;;;;;;;;;26.50;31.00;;;;;;5058566;28;19913;-55
2022/03/16 07:16:50;;;;;;;;;;;26.40;31.10;;;;;;5068794;28;20027;-54
2022/03/16 07:19:15;;;;;;;;;;;26.30;31.20;;;;;;5074954;28;20016;-53
2022/03/16 07:21:41;;;;;;;;;;;26.30;31.40;;;;;;5075085;28;19909;-53
2022/03/16 07:24:06;;;;;;;;;;;26.30;31.60;;;;;;5074302;28;19912;-53
2022/03/16 07:26:32;;;;;;;;;;;26.20;31.60;;;;;;5074088;28;19916;-54
2022/03/16 07:28:57;;;;;;;;;;;26.20;31.70;;;;;;5075511;28;19908;-54
2022/03/16 07:31:23;;;;;;;;;;;26.10;31.80;;;;;;5074541;28;19999;-53
2022/03/16 07:33:48;;;;;;;;;;;26.00;31.90;;;;;;5073908;28;19919;-55
2022/03/16 07:36:14;;;;;;;;;;;26.00;32.10;;;;;;5062854;28;19920;-54
2022/03/16 07:38:39;;;;;;;;;;;25.90;32.20;;;;;;5065169;28;20007;-55
2022/03/16 07:41:05;;;;;;;;;;;25.90;32.40;;;;;;5072396;28;19908;-53
2022/03/16 07:43:31;;;;;;;;;;;25.80;32.50;;;;;;5069844;28;19913;-53
2022/03/16 07:45:56;;;;;;;;;;;25.80;32.60;;;;;;5070700;28;19912;-53
2022/03/16 07:48:22;;;;;;;;;;;25.80;32.60;;;;;;5073027;28;19920;-53
2022/03/16 07:50:48;;;;;;;;;;;25.80;32.60;;;;;;5073688;28;19908;-55
2022/03/16 07:53:13;;;;;;;;;;;25.90;32.50;;;;;;5066769;28;20272;-55
2022/03/16 07:55:39;;;;;;;;;;;25.80;32.60;;;;;;5069256;28;20368;-55
2022/03/16 07:58:04;;;;;;;;;;;25.80;32.60;;;;;;5068997;28;19917;-53
2022/03/16 08:00:29;;;;;;;;;;;25.80;32.70;;;;;;5065423;28;19912;-54
2022/03/16 08:02:55;;;;;;;;;;;25.80;32.70;;;;;;5074099;28;20221;-55
2022/03/16 08:05:24;;;;;;;;;;;25.90;32.70;;;;;;5070284;28;19921;-54
2022/03/16 08:07:50;;;;;;;;;;;25.80;32.70;;;;;;5070921;28;20237;-55
2022/03/16 08:10:15;;;;;;;;;;;25.70;32.80;;;;;;5069265;28;19943;-56
2022/03/16 08:12:41;;;;;;;;;;;25.70;32.70;;;;;;5064485;28;20117;-53
2022/03/16 08:15:06;;;;;;;;;;;25.70;32.70;;;;;;5069682;28;19928;-54
2022/03/16 08:17:32;;;;;;;;;;;25.60;33.00;;;;;;5074090;28;19916;-55
2022/03/16 08:19:57;;;;;;;;;;;25.60;33.20;;;;;;5071520;28;20313;-54
2022/03/16 08:22:23;;;;;;;;;;;25.60;33.20;;;;;;5068159;28;19912;-53
2022/03/16 08:24:52;;;;;;;;;;;25.70;33.20;;;;;;5070505;28;20337;-53
2022/03/16 08:27:18;;;;;;;;;;;25.70;33.10;;;;;;5068457;28;19919;-54
2022/03/16 08:29:43;;;;;;;;;;;25.70;33.00;;;;;;5072614;28;19912;-55
2022/03/16 08:32:08;;;;;;;;;;;25.80;33.10;;;;;;5071637;28;20360;-54
2022/03/16 08:34:34;;;;;;;;;;;25.80;33.00;;;;;;5062163;28;20382;-53
2022/03/16 08:37:00;;;;;;;;;;;25.80;33.00;;;;;;5064336;28;20041;-53
2022/03/16 08:39:26;;;;;;;;;;;25.80;33.00;;;;;;5073554;28;19913;-54
2022/03/16 08:41:51;;;;;;;;;;;25.90;33.00;;;;;;5070268;28;19942;-54
2022/03/16 08:44:17;;;;;;;;;;;25.80;32.90;;;;;;5068172;28;20364;-54
2022/03/16 08:46:42;;;;;;;;;;;25.90;33.00;;;;;;5069078;28;20415;-54
2022/03/16 08:49:08;;;;;;;;;;;25.90;32.80;;;;;;5072063;28;19913;-54
2022/03/16 08:51:33;;;;;;;;;;;25.90;32.80;;;;;;5069184;28;20508;-54
2022/03/16 08:53:59;;;;;;;;;;;26.00;32.80;;;;;;5073782;28;19916;-54
2022/03/16 08:56:24;;;;;;;;;;;26.00;32.80;;;;;;5071412;28;20094;-54
2022/03/16 08:58:50;;;;;;;;;;;26.10;32.80;;;;;;5072358;28;19920;-54
2022/03/16 09:01:15;;;;;;;;;;;26.10;32.70;;;;;;5069345;28;20411;-54
2022/03/16 09:03:41;;;;;;;;;;;26.10;32.60;;;;;;5072959;28;20284;-54
2022/03/16 09:06:06;;;;;;;;;;;26.00;32.60;;;;;;5069292;28;20344;-54
2022/03/16 09:08:32;;;;;;;;;;;26.00;32.70;;;;;;5061738;28;19923;-54
2022/03/16 09:10:57;;;;;;;;;;;25.90;32.80;;;;;;5072889;28;20433;-54
2022/03/16 09:13:23;;;;;;;;;;;25.90;32.80;;;;;;5063156;28;19917;-55
2022/03/16 09:15:51;;;;;;;;;;;25.90;32.90;;;;;;5067206;28;19974;-53
2022/03/16 09:18:18;;;;;;;;;;;25.90;33.00;;;;;;5065646;28;19935;-54
2022/03/16 09:20:43;;;;;;;;;;;25.80;33.10;;;;;;5058807;28;20015;-54
2022/03/16 09:23:09;;;;;;;;;;;25.80;33.20;;;;;;5065332;28;19920;-54
2022/03/16 09:25:35;;;;;;;;;;;25.80;33.20;;;;;;5066089;28;19913;-54
2022/03/16 09:28:01;;;;;;;;;;;25.70;33.20;;;;;;5071623;28;19942;-54
2022/03/16 09:30:26;;;;;;;;;;;25.80;33.20;;;;;;5072175;28;19958;-54
2022/03/16 09:32:57;;;;;;;;;;;25.80;33.10;;;;;;5064083;28;19921;-53
2022/03/16 09:35:23;;;;;;;;;;;25.80;33.10;;;;;;5071877;28;19923;-54
2022/03/16 09:37:50;;;;;;;;;;;25.90;33.10;;;;;;5070071;28;19916;-54
2022/03/16 09:40:17;;;;;;;;;;;25.90;33.00;;;;;;5068870;28;19919;-54
2022/03/16 09:42:42;;;;;;;;;;;25.90;33.00;;;;;;5068995;28;19920;-54
2022/03/16 09:45:10;;;;;;;;;;;25.90;33.00;;;;;;5069332;28;19920;-53
2022/03/16 09:47:36;;;;;;;;;;;25.90;33.00;;;;;;5064103;28;19921;-54
2022/03/16 09:50:02;;;;;;;;;;;25.90;33.00;;;;;;5059449;28;19909;-54
2022/03/16 09:52:28;;;;;;;;;;;25.90;33.00;;;;;;5063515;28;19923;-54
2022/03/16 09:54:54;;;;;;;;;;;25.90;33.20;;;;;;5070700;28;20364;-54
2022/03/16 09:57:19;;;;;;;;;;;25.90;33.20;;;;;;5065850;28;19978;-53
2022/03/16 09:59:45;;;;;;;;;;;25.90;33.20;;;;;;5072415;28;19993;-54
2022/03/16 10:02:14;;;;;;;;;;;25.90;33.20;;;;;;5063612;28;19967;-54
2022/03/16 10:04:41;;;;;;;;;;;25.90;33.20;;;;;;5070812;28;19916;-54
2022/03/16 10:07:07;;;;;;;;;;;25.90;33.20;;;;;;5066923;28;19917;-55
2022/03/16 10:15:10;;;;;;;;;;;25.80;33.30;;;;;;5057277;28;19943;-55
2022/03/16 10:17:45;;;;;;;;;;;25.70;33.40;;;;;;5063772;28;19923;-55
2022/03/16 10:20:17;;;;;;;;;;;25.70;33.40;;;;;;5071154;28;20000;-55
2022/03/16 10:22:42;;;;;;;;;;;25.80;33.50;;;;;;5069933;28;20006;-55
2022/03/16 10:25:08;;;;;;;;;;;25.80;33.40;;;;;;5066094;28;20010;-55
2022/03/16 10:27:37;;;;;;;;;;;25.80;33.30;;;;;;5063561;28;20395;-54
2022/03/16 10:30:05;;;;;;;;;;;25.90;33.30;;;;;;5070239;28;19916;-54
2022/03/16 10:32:32;;;;;;;;;;;25.90;33.20;;;;;;5067544;28;19919;-55
2022/03/16 10:34:57;;;;;;;;;;;25.90;33.20;;;;;;5068128;28;19923;-55
2022/03/16 10:37:23;;;;;;;;;;;25.90;33.20;;;;;;5062982;28;20007;-55
2022/03/16 10:39:49;;;;;;;;;;;25.90;33.20;;;;;;5064417;28;20698;-55
2022/03/16 10:48:14;;;;;;;;;;;25.90;33.20;;;;;;5067935;28;19951;-55
2022/03/16 10:50:39;;;;;;;;;;;25.90;33.30;;;;;;5061386;28;20056;-54
2022/03/16 10:53:05;;;;;;;;;;;25.80;33.30;;;;;;5071296;28;19948;-55
2022/03/16 10:55:30;;;;;;;;;;;25.80;33.40;;;;;;5063400;28;19921;-54
2022/03/16 10:57:56;;;;;;;;;;;25.80;33.50;;;;;;5066755;28;19916;-54
2022/03/16 11:00:21;;;;;;;;;;;25.80;33.70;;;;;;5066314;28;20015;-55
2022/03/16 11:02:47;;;;;;;;;;;25.70;33.60;;;;;;5069281;28;19920;-55
2022/03/16 11:05:18;;;;;;;;;;;25.70;33.60;;;;;;5063794;28;19974;-54
2022/03/16 11:07:44;;;;;;;;;;;25.70;33.70;;;;;;5061383;28;19942;-53
2022/03/16 11:10:10;;;;;;;;;;;25.80;33.50;;;;;;5070724;28;19919;-55
2022/03/16 11:15:19;;;;;;;;;;;25.80;33.50;;;;;;5059465;28;19928;-54
2022/03/16 11:17:45;;;;;;;;;;;25.70;33.60;;;;;;5069063;28;20272;-54
2022/03/16 11:20:10;;;;;;;;;;;25.70;33.70;;;;;;5070374;28;20003;-55
2022/03/16 11:24:15;;;;;;;;;;;25.70;33.80;;;;;;5064238;28;19916;-53
2022/03/16 11:25:24;;;;;;;;;;;25.70;33.80;;;;;;5070677;28;19920;-55
2022/03/16 11:27:51;;;;;;;;;;;25.80;33.80;;;;;;5067799;28;19912;-54
2022/03/16 11:30:29;;;;;;;;;;;25.80;33.80;;;;;;5066539;28;19957;-54
2022/03/16 11:33:00;;;;;;;;;;;25.80;33.70;;;;;;5055165;28;19921;-54
2022/03/16 11:35:30;;;;;;;;;;;25.80;33.70;;;;;;5066253;28;19969;-54
2022/03/16 11:37:58;;;;;;;;;;;25.90;33.60;;;;;;5067865;28;20015;-54
2022/03/16 11:40:24;;;;;;;;;;;25.90;33.50;;;;;;5080903;28;19919;-55
2022/03/16 11:43:06;;;;;;;;;;;25.90;33.50;;;;;;5058949;28;19916;-55
2022/03/16 11:45:33;;;;;;;;;;;25.90;33.50;;;;;;5069830;28;19912;-55
2022/03/16 11:47:59;;;;;;;;;;;25.90;33.50;;;;;;5063860;28;20007;-54
2022/03/16 11:50:24;;;;;;;;;;;25.90;33.50;;;;;;5052397;28;20035;-55
2022/03/16 11:53:00;;;;;;;;;;;25.90;33.60;;;;;;5067481;28;20427;-54
2022/03/16 11:55:45;;;;;;;;;;;25.90;33.60;;;;;;5069207;28;19917;-55
2022/03/16 11:58:16;;;;;;;;;;;25.90;33.60;;;;;;5070023;28;20007;-54
2022/03/16 12:00:44;;;;;;;;;;;25.90;33.60;;;;;;5069167;28;19909;-53
2022/03/16 12:03:11;;;;;;;;;;;25.80;33.50;;;;;;5061186;28;19924;-53
2022/03/16 12:05:53;;;;;;;;;;;25.90;33.60;;;;;;5063531;28;19920;-54
2022/03/16 12:08:18;;;;;;;;;;;25.90;33.60;;;;;;5070842;28;19916;-54
2022/03/16 12:12:50;;;;;;;;;;;25.90;33.50;;;;;;5073161;28;20422;-54
2022/03/16 12:13:33;;;;;;;;;;;25.90;33.50;;;;;;5071349;28;19912;-54
2022/03/16 12:15:58;;;;;;;;;;;25.90;33.40;;;;;;5072648;28;19959;-55
2022/03/16 12:18:25;;;;;;;;;;;25.90;33.40;;;;;;5072663;28;19923;-55
2022/03/16 12:20:58;;;;;;;;;;;26.00;33.50;;;;;;5074298;28;19938;-54
2022/03/16 12:23:39;;;;;;;;;;;26.00;33.40;;;;;;5063700;28;19932;-55
2022/03/16 12:26:05;;;;;;;;;;;26.00;33.40;;;;;;5074523;28;19961;-55
2022/03/16 12:31:15;;;;;;;;;;;25.90;33.40;;;;;;5068715;28;19927;-54
2022/03/16 12:33:42;;;;;;;;;;;26.00;33.40;;;;;;5068553;28;19912;-55
2022/03/16 12:36:14;;;;;;;;;;;26.00;33.30;;;;;;5072290;28;19923;-54
2022/03/16 12:38:41;;;;;;;;;;;26.10;33.40;;;;;;5067326;28;19924;-55
2022/03/16 12:43:53;;;;;;;;;;;26.00;33.50;;;;;;5058591;28;20284;-55
2022/03/16 12:46:23;;;;;;;;;;;25.90;33.70;;;;;;5071678;28;19916;-53
2022/03/16 12:48:51;;;;;;;;;;;25.90;33.80;;;;;;5071065;28;19923;-53
2022/03/16 12:51:35;;;;;;;;;;;25.90;33.70;;;;;;5067918;28;19912;-53
2022/03/16 12:54:00;;;;;;;;;;;26.00;33.70;;;;;;5066637;28;19979;-53
2022/03/16 12:56:26;;;;;;;;;;;26.00;33.70;;;;;;5066817;28;20303;-54
2022/03/16 12:58:52;;;;;;;;;;;26.00;33.60;;;;;;5068792;28;19962;-55
2022/03/16 13:01:18;;;;;;;;;;;26.00;33.60;;;;;;5061921;28;19917;-54
2022/03/16 13:03:43;;;;;;;;;;;26.00;33.50;;;;;;5071610;28;19912;-55
2022/03/16 13:06:16;;;;;;;;;;;26.00;33.50;;;;;;5069547;28;19956;-54
2022/03/16 13:08:42;;;;;;;;;;;26.10;33.50;;;;;;5072251;28;20387;-53
2022/03/16 13:11:17;;;;;;;;;;;26.10;33.30;;;;;;5072696;28;19912;-54
2022/03/16 13:13:48;;;;;;;;;;;26.10;33.20;;;;;;5067757;28;19920;-54
2022/03/16 13:16:52;;;;;;;;;;;26.10;33.40;;;;;;5072743;28;19928;-55
2022/03/16 13:19:24;;;;;;;;;;;26.10;33.70;;;;;;5011376;28;19910;-55
2022/03/16 13:22:02;;;;;;;;;;;26.00;33.80;;;;;;5052932;28;19928;-55
2022/03/16 13:24:29;;;;;;;;;;;26.00;33.80;;;;;;5063004;28;20353;-54
2022/03/16 13:26:54;;;;;;;;;;;26.00;33.90;;;;;;5072296;28;19922;-54
2022/03/16 13:29:20;;;;;;;;;;;26.00;34.00;;;;;;5070510;28;20362;-54
2022/03/16 13:31:45;;;;;;;;;;;26.10;34.20;;;;;;5069446;28;19939;-55
2022/03/16 13:34:11;;;;;;;;;;;26.10;34.20;;;;;;5070769;28;19922;-55
2022/03/16 13:36:42;;;;;;;;;;;26.10;34.40;;;;;;5070577;28;20422;-54
2022/03/16 13:39:17;;;;;;;;;;;26.00;34.50;;;;;;5069104;28;19912;-55
2022/03/16 13:42:11;;;;;;;;;;;26.10;34.60;;;;;;5070806;28;19913;-53
2022/03/16 13:44:37;;;;;;;;;;;26.10;34.60;;;;;;5068968;28;19938;-55
2022/03/16 13:47:12;;;;;;;;;;;26.10;34.60;;;;;;5071354;28;19912;-55
2022/03/16 13:49:37;;;;;;;;;;;26.10;34.60;;;;;;5070312;28;20379;-55
2022/03/16 13:52:21;;;;;;;;;;;26.10;34.70;;;;;;5070167;28;19916;-54
2022/03/16 13:54:47;;;;;;;;;;;26.00;34.70;;;;;;5068299;28;19955;-56
2022/03/16 13:57:17;;;;;;;;;;;25.90;34.80;;;;;;5060936;28;20002;-54
2022/03/16 13:59:52;;;;;;;;;;;25.90;35.00;;;;;;5065028;28;19912;-55
2022/03/16 14:02:22;;;;;;;;;;;25.90;35.20;;;;;;5070601;28;19990;-55
2022/03/16 14:04:55;;;;;;;;;;;25.90;35.20;;;;;;5061293;28;19927;-55
2022/03/16 14:07:26;;;;;;;;;;;25.80;35.20;;;;;;5070724;28;19916;-54
2022/03/16 14:09:53;;;;;;;;;;;25.70;35.20;;;;;;5070440;28;19958;-54
2022/03/16 14:12:19;;;;;;;;;;;25.70;35.40;;;;;;5067090;28;19913;-55
2022/03/16 14:14:45;;;;;;;;;;;25.70;35.50;;;;;;5065219;28;19924;-53
2022/03/16 14:17:11;;;;;;;;;;;25.80;35.40;;;;;;5070152;28;20027;-54
2022/03/16 14:19:36;;;;;;;;;;;25.80;35.20;;;;;;5071433;28;20335;-54
2022/03/16 14:22:02;;;;;;;;;;;25.90;35.00;;;;;;5066454;28;19908;-53
2022/03/16 14:24:28;;;;;;;;;;;25.90;34.90;;;;;;5063068;28;19996;-54
2022/03/16 14:26:53;;;;;;;;;;;26.00;34.80;;;;;;5069049;28;20265;-55
2022/03/16 14:29:23;;;;;;;;;;;26.00;34.70;;;;;;5070502;28;19916;-54
2022/03/16 14:31:49;;;;;;;;;;;26.10;34.60;;;;;;5069057;28;19912;-55
2022/03/16 14:34:15;;;;;;;;;;;26.10;34.60;;;;;;5071484;28;20016;-54
2022/03/16 14:36:41;;;;;;;;;;;26.20;34.60;;;;;;5070582;28;20019;-55